createdAt,value
2023-03-19T00:03:00.610Z,17.57
2023-03-19T00:06:02.687Z,17.55
2023-03-19T00:09:04.591Z,17.48
2023-03-19T00:12:06.845Z,17.45
2023-03-19T00:15:14.062Z,17.41
2023-03-19T00:18:16.148Z,17.34
2023-03-19T00:21:17.677Z,17.32
2023-03-19T00:24:19.346Z,17.30
2023-03-19T00:27:21.038Z,17.13
2023-03-19T00:30:24.072Z,17.06
2023-03-19T00:33:26.737Z,17.09
2023-03-19T00:36:30.072Z,17.16
2023-03-19T00:39:32.314Z,17.14
2023-03-19T00:42:34.279Z,17.19
2023-03-19T00:45:36.051Z,17.25
2023-03-19T00:48:37.704Z,17.24
2023-03-19T00:51:43.615Z,17.28
2023-03-19T00:54:45.372Z,17.30
2023-03-19T00:57:46.915Z,17.37
2023-03-19T01:00:48.609Z,17.31
2023-03-19T01:03:50.126Z,17.28
2023-03-19T01:06:51.653Z,17.38
2023-03-19T01:09:53.262Z,17.39
2023-03-19T01:12:54.752Z,17.30
2023-03-19T01:15:56.614Z,17.25
2023-03-19T01:18:58.533Z,17.28
2023-03-19T01:22:00.150Z,17.37
2023-03-19T01:25:02.183Z,17.39
2023-03-19T01:28:03.960Z,17.33
2023-03-19T01:31:07.720Z,17.25
2023-03-19T01:34:36.660Z,17.35
2023-03-19T01:37:43.940Z,17.41
2023-03-19T01:40:48.577Z,17.47
2023-03-19T01:43:50.622Z,17.59
2023-03-19T01:47:26.067Z,17.70
2023-03-19T01:50:53.833Z,17.77
2023-03-19T01:54:19.073Z,17.84
2023-03-19T01:57:24.514Z,17.77
2023-03-19T02:00:39.194Z,17.74
2023-03-19T02:03:42.322Z,17.58
2023-03-19T02:07:00.735Z,17.54
2023-03-19T02:10:07.228Z,17.69
2023-03-19T02:13:08.878Z,17.83
2023-03-19T02:16:11.053Z,17.79
2023-03-19T02:19:19.046Z,17.75
2023-03-19T02:22:23.786Z,17.82
2023-03-19T02:25:33.060Z,17.85
2023-03-19T02:28:39.773Z,17.80
2023-03-19T02:31:42.210Z,17.77
2023-03-19T02:34:44.610Z,17.76
2023-03-19T02:37:46.915Z,17.78
2023-03-19T02:41:04.539Z,17.80
2023-03-19T02:44:06.637Z,17.82
2023-03-19T02:47:08.385Z,17.75
2023-03-19T02:50:10.467Z,17.68
2023-03-19T02:53:12.236Z,17.67
2023-03-19T02:56:13.766Z,17.69
2023-03-19T02:59:15.472Z,17.64
2023-03-19T03:02:17.573Z,17.64
2023-03-19T03:05:19.054Z,17.58
2023-03-19T03:08:21.637Z,17.47
2023-03-19T03:11:23.164Z,17.47
2023-03-19T03:14:24.832Z,17.66
2023-03-19T03:17:27.003Z,17.65
2023-03-19T03:20:28.517Z,17.56
2023-03-19T03:23:30.008Z,17.46
2023-03-19T03:26:31.742Z,17.46
2023-03-19T03:29:33.197Z,17.49
2023-03-19T03:32:36.729Z,17.54
2023-03-19T03:35:38.895Z,17.48
2023-03-19T03:38:40.688Z,17.42
2023-03-19T03:41:42.431Z,17.39
2023-03-19T03:44:44.523Z,17.42
2023-03-19T03:47:46.305Z,17.38
2023-03-19T03:50:47.931Z,17.39
2023-03-19T03:53:53.246Z,17.40
2023-03-19T03:56:54.837Z,17.46
2023-03-19T03:59:56.509Z,17.54
2023-03-19T04:02:59.299Z,17.52
2023-03-19T04:06:00.857Z,17.47
2023-03-19T04:09:02.923Z,17.50
2023-03-19T04:12:04.873Z,17.50
2023-03-19T04:15:08.076Z,17.47
2023-03-19T04:18:11.743Z,17.42
2023-03-19T04:21:13.604Z,17.45
2023-03-19T04:24:15.495Z,17.48
2023-03-19T04:27:17.043Z,17.41
2023-03-19T04:30:18.972Z,17.38
2023-03-19T04:33:20.569Z,17.35
2023-03-19T04:36:22.512Z,17.30
2023-03-19T04:39:24.731Z,17.18
2023-03-19T04:42:26.974Z,17.19
2023-03-19T04:45:39.129Z,17.14
2023-03-19T04:48:41.055Z,17.09
2023-03-19T04:51:42.757Z,17.21
2023-03-19T04:54:44.273Z,17.12
2023-03-19T04:57:45.864Z,17.07
2023-03-19T05:00:48.040Z,17.12
2023-03-19T05:03:54.310Z,17.07
2023-03-19T05:06:57.416Z,16.99
2023-03-19T05:09:59.245Z,16.98
2023-03-19T05:13:00.846Z,16.95
2023-03-19T05:16:02.674Z,16.93
2023-03-19T05:19:05.252Z,16.95
2023-03-19T05:22:07.653Z,16.88
2023-03-19T05:25:09.825Z,16.92
2023-03-19T05:28:14.857Z,16.89
2023-03-19T05:31:17.307Z,16.94
2023-03-19T05:34:23.445Z,16.98
2023-03-19T05:37:26.667Z,17.02
2023-03-19T05:40:32.022Z,16.96
2023-03-19T05:43:38.169Z,16.86
2023-03-19T05:46:43.729Z,16.87
2023-03-19T05:49:46.046Z,16.96
2023-03-19T05:52:47.860Z,16.95
2023-03-19T05:55:49.367Z,16.98
2023-03-19T05:58:51.057Z,16.99
2023-03-19T06:01:57.140Z,16.73
2023-03-19T06:04:58.823Z,16.59
2023-03-19T06:08:04.254Z,16.42
2023-03-19T06:11:19.292Z,16.33
2023-03-19T06:14:26.785Z,16.05
2023-03-19T06:17:51.218Z,15.95
2023-03-19T06:20:52.978Z,15.95
2023-03-19T06:23:54.659Z,15.98
2023-03-19T06:27:03.701Z,15.97
2023-03-19T06:30:05.849Z,15.97
2023-03-19T06:33:08.329Z,15.94
2023-03-19T06:36:09.945Z,15.91
2023-03-19T06:39:11.552Z,15.90
2023-03-19T06:42:13.243Z,15.81
2023-03-19T06:45:16.523Z,15.90
2023-03-19T06:48:18.783Z,16.01
2023-03-19T06:51:20.454Z,16.16
2023-03-19T06:54:22.374Z,16.28
2023-03-19T06:57:23.895Z,16.39
2023-03-19T07:00:25.416Z,16.53
2023-03-19T07:03:26.939Z,16.73
2023-03-19T07:06:28.433Z,16.86
2023-03-19T07:09:29.916Z,17.05
2023-03-19T07:12:31.531Z,17.19
2023-03-19T07:15:33.908Z,17.30
2023-03-19T07:18:35.919Z,17.59
2023-03-19T07:21:37.424Z,17.86
2023-03-19T07:24:38.879Z,18.03
2023-03-19T07:27:40.397Z,18.11
2023-03-19T07:30:42.097Z,18.17
2023-03-19T07:33:43.684Z,18.38
2023-03-19T07:36:45.146Z,18.45
2023-03-19T07:39:46.890Z,18.53
2023-03-19T07:42:48.413Z,18.39
2023-03-19T07:45:49.869Z,18.42
2023-03-19T07:48:51.360Z,18.53
2023-03-19T07:51:53.855Z,18.71
2023-03-19T07:54:56.035Z,18.89
2023-03-19T07:57:57.703Z,19.31
2023-03-19T08:00:59.226Z,19.84
2023-03-19T08:04:00.787Z,20.00
2023-03-19T08:07:02.289Z,19.99
2023-03-19T08:10:05.557Z,19.99
2023-03-19T08:13:07.165Z,19.93
2023-03-19T08:16:09.316Z,20.11
2023-03-19T08:19:10.770Z,20.01
2023-03-19T08:22:12.649Z,20.02
2023-03-19T08:25:14.588Z,20.09
2023-03-19T08:28:16.177Z,20.05
2023-03-19T08:31:17.701Z,20.15
2023-03-19T08:34:19.429Z,20.43
2023-03-19T08:37:20.894Z,19.37
2023-03-19T08:40:23.390Z,18.96
2023-03-19T08:43:25.133Z,18.35
2023-03-19T08:46:27.611Z,17.81
2023-03-19T08:49:29.454Z,17.66
2023-03-19T08:52:31.279Z,17.31
2023-03-19T08:55:32.906Z,17.20
2023-03-19T08:58:34.827Z,17.07
2023-03-19T09:01:37.257Z,17.09
2023-03-19T09:04:43.243Z,17.00
2023-03-19T09:07:45.551Z,17.04
2023-03-19T09:10:47.115Z,16.99
2023-03-19T09:13:48.748Z,16.91
2023-03-19T09:16:50.314Z,16.91
2023-03-19T09:19:51.879Z,17.15
2023-03-19T09:22:53.397Z,17.37
2023-03-19T09:25:54.965Z,17.59
2023-03-19T09:28:56.567Z,17.66
2023-03-19T09:31:58.227Z,17.65
2023-03-19T09:34:59.729Z,17.67
2023-03-19T09:38:02.137Z,17.99
2023-03-19T09:41:31.530Z,17.96
2023-03-19T09:44:38.057Z,18.07
2023-03-19T09:47:40.088Z,18.20
2023-03-19T09:50:42.458Z,18.31
2023-03-19T09:53:58.605Z,18.78
2023-03-19T09:57:01.100Z,18.60
2023-03-19T10:00:18.987Z,18.33
2023-03-19T10:03:52.387Z,18.64
2023-03-19T10:07:04.128Z,18.55
2023-03-19T10:10:33.413Z,17.69
2023-03-19T10:14:06.941Z,17.30
2023-03-19T10:17:16.421Z,17.64
2023-03-19T10:20:30.374Z,17.55
2023-03-19T10:23:45.684Z,17.65
2023-03-19T10:26:47.831Z,17.49
2023-03-19T10:29:49.427Z,17.39
2023-03-19T10:33:17.373Z,16.98
2023-03-19T10:36:22.163Z,16.83
2023-03-19T10:39:24.085Z,16.53
2023-03-19T10:42:39.280Z,16.22
2023-03-19T10:45:41.299Z,16.34
2023-03-19T10:48:45.846Z,16.47
2023-03-19T10:51:48.810Z,16.52
2023-03-19T10:54:55.958Z,16.72
2023-03-19T10:58:06.730Z,17.07
2023-03-19T11:01:12.975Z,17.13
2023-03-19T11:04:19.421Z,17.17
2023-03-19T11:07:21.783Z,17.44
2023-03-19T11:10:25.833Z,17.36
2023-03-19T11:13:27.647Z,17.22
2023-03-19T11:16:29.245Z,17.69
2023-03-19T11:19:34.451Z,17.94
2023-03-19T11:22:37.698Z,18.18
2023-03-19T11:25:51.810Z,18.08
2023-03-19T11:28:53.493Z,18.04
2023-03-19T11:32:26.386Z,18.21
2023-03-19T11:36:18.914Z,18.45
2023-03-19T11:39:35.675Z,18.23
2023-03-19T11:42:55.905Z,18.35
2023-03-19T11:46:19.738Z,18.43
2023-03-19T11:49:29.927Z,18.32
2023-03-19T11:53:02.575Z,18.28
2023-03-19T11:56:33.641Z,18.36
2023-03-19T12:00:07.948Z,18.10
2023-03-19T12:03:22.375Z,17.91
2023-03-19T12:06:57.055Z,17.83
2023-03-19T12:10:35.273Z,18.22
2023-03-19T12:13:46.054Z,18.25
2023-03-19T12:17:07.242Z,18.09
2023-03-19T12:20:42.181Z,18.19
2023-03-19T12:23:53.726Z,18.26
2023-03-19T12:27:04.327Z,18.14
2023-03-19T12:30:18.122Z,18.03
2023-03-19T12:33:32.516Z,18.05
2023-03-19T12:36:45.872Z,17.55
2023-03-19T12:40:22.098Z,17.31
2023-03-19T12:43:42.173Z,17.20
2023-03-19T12:46:58.570Z,17.15
2023-03-19T12:50:05.576Z,17.09
2023-03-19T12:53:17.177Z,17.14
2023-03-19T12:56:39.284Z,16.95
2023-03-19T12:59:54.368Z,17.00
2023-03-19T13:03:05.160Z,16.94
2023-03-19T13:06:12.937Z,16.95
2023-03-19T13:09:43.841Z,16.78
2023-03-19T13:12:47.853Z,16.97
2023-03-19T13:15:52.652Z,17.20
2023-03-19T13:19:01.365Z,17.36
2023-03-19T13:22:09.776Z,17.51
2023-03-19T13:25:17.591Z,17.42
2023-03-19T13:28:37.955Z,17.93
2023-03-19T13:31:39.844Z,17.62
2023-03-19T13:34:41.534Z,17.44
2023-03-19T13:37:43.869Z,17.43
2023-03-19T13:40:52.526Z,17.95
2023-03-19T13:43:55.024Z,18.20
2023-03-19T13:46:57.625Z,18.61
2023-03-19T13:50:20.153Z,18.84
2023-03-19T13:53:34.649Z,18.89
2023-03-19T13:57:08.687Z,18.70
2023-03-19T14:00:43.874Z,17.97
2023-03-19T14:04:16.878Z,17.67
2023-03-19T14:07:21.038Z,18.35
2023-03-19T14:10:28.976Z,19.13
2023-03-19T14:13:47.367Z,18.59
2023-03-19T14:16:52.721Z,18.23
2023-03-19T14:19:54.682Z,18.23
2023-03-19T14:23:11.667Z,18.78
2023-03-19T14:26:23.192Z,19.43
2023-03-19T14:29:26.428Z,19.28
2023-03-19T14:32:40.926Z,17.98
2023-03-19T14:35:46.654Z,17.31
2023-03-19T14:38:55.944Z,16.89
2023-03-19T14:42:22.359Z,16.56
2023-03-19T14:45:35.180Z,16.29
2023-03-19T14:48:51.157Z,16.44
2023-03-19T14:52:07.658Z,16.50
2023-03-19T14:55:12.769Z,16.57
2023-03-19T14:58:14.859Z,16.40
2023-03-19T15:01:17.294Z,16.10
2023-03-19T15:04:22.783Z,15.96
2023-03-19T15:07:35.021Z,15.71
2023-03-19T15:11:03.471Z,15.36
2023-03-19T15:14:17.163Z,15.05
2023-03-19T15:17:25.719Z,15.02
2023-03-19T15:20:38.030Z,15.08
2023-03-19T15:23:41.630Z,14.99
2023-03-19T15:26:43.691Z,15.05
2023-03-19T15:29:49.014Z,15.18
2023-03-19T15:33:07.833Z,15.33
2023-03-19T15:36:12.914Z,15.80
2023-03-19T15:39:19.404Z,16.37
2023-03-19T15:42:23.241Z,16.60
2023-03-19T15:45:27.025Z,16.45
2023-03-19T15:48:38.225Z,16.24
2023-03-19T15:51:40.723Z,16.07
2023-03-19T15:54:42.919Z,15.90
2023-03-19T15:57:45.221Z,15.74
2023-03-19T16:00:47.096Z,15.55
2023-03-19T16:03:59.859Z,15.53
2023-03-19T16:07:01.899Z,15.47
2023-03-19T16:10:27.998Z,15.40
2023-03-19T16:13:39.542Z,15.49
2023-03-19T16:16:42.223Z,15.64
2023-03-19T16:19:56.393Z,15.85
2023-03-19T16:23:01.110Z,18.30
2023-03-19T16:26:15.110Z,19.93
2023-03-19T16:29:28.727Z,19.00
2023-03-19T16:32:32.143Z,19.36
2023-03-19T16:35:34.920Z,19.44
2023-03-19T16:38:44.370Z,19.11
2023-03-19T16:42:10.965Z,19.17
2023-03-19T16:45:15.401Z,19.45
2023-03-19T16:48:16.900Z,19.32
2023-03-19T16:51:21.127Z,18.77
2023-03-19T16:54:23.716Z,17.91
2023-03-19T16:57:25.747Z,17.22
2023-03-19T17:00:31.383Z,17.16
2023-03-19T17:03:33.404Z,17.02
2023-03-19T17:06:34.875Z,17.05
2023-03-19T17:09:36.634Z,16.75
2023-03-19T17:12:38.403Z,16.40
2023-03-19T17:15:42.289Z,16.29
2023-03-19T17:18:44.945Z,15.89
2023-03-19T17:21:48.797Z,15.74
2023-03-19T17:24:50.572Z,15.60
2023-03-19T17:27:52.170Z,15.46
2023-03-19T17:30:53.775Z,15.11
2023-03-19T17:34:31.795Z,14.69
2023-03-19T17:37:33.322Z,14.55
2023-03-19T17:40:35.472Z,14.45
2023-03-19T17:43:37.285Z,14.13
2023-03-19T17:46:42.841Z,14.24
2023-03-19T17:49:45.203Z,13.54
2023-03-19T17:52:47.194Z,13.59
2023-03-19T17:55:48.661Z,13.34
2023-03-19T17:58:50.593Z,13.36
2023-03-19T18:01:52.312Z,13.59
2023-03-19T18:04:53.796Z,17.69
2023-03-19T18:07:56.277Z,18.13
2023-03-19T18:10:57.790Z,18.26
2023-03-19T18:13:59.371Z,18.33
2023-03-19T18:17:01.195Z,18.43
2023-03-19T18:20:04.377Z,18.39
2023-03-19T18:23:06.683Z,18.34
2023-03-19T18:26:08.689Z,18.26
2023-03-19T18:29:10.304Z,18.20
2023-03-19T18:32:15.955Z,18.19
2023-03-19T18:35:21.073Z,18.14
2023-03-19T18:38:24.962Z,18.22
2023-03-19T18:41:30.999Z,17.94
2023-03-19T18:44:38.268Z,17.31
2023-03-19T18:47:41.380Z,17.05
2023-03-19T18:50:42.984Z,16.64
2023-03-19T18:53:44.515Z,16.11
2023-03-19T18:56:47.949Z,15.61
2023-03-19T18:59:49.552Z,15.94
2023-03-19T19:02:53.148Z,16.12
2023-03-19T19:05:56.089Z,16.19
2023-03-19T19:08:57.655Z,16.30
2023-03-19T19:12:00.758Z,16.29
2023-03-19T19:15:05.025Z,16.36
2023-03-19T19:18:21.643Z,16.28
2023-03-19T19:21:23.458Z,16.22
2023-03-19T19:24:25.051Z,16.34
2023-03-19T19:27:26.749Z,16.36
2023-03-19T19:30:28.791Z,16.45
2023-03-19T19:33:36.953Z,16.43
2023-03-19T19:36:38.462Z,16.43
2023-03-19T19:39:40.219Z,16.51
2023-03-19T19:42:43.983Z,16.72
2023-03-19T19:45:48.436Z,16.58
2023-03-19T19:48:50.140Z,16.51
2023-03-19T19:51:51.808Z,16.48
2023-03-19T19:54:53.448Z,16.49
2023-03-19T19:57:57.432Z,16.58
2023-03-19T20:01:04.224Z,16.53
2023-03-19T20:04:06.196Z,16.35
2023-03-19T20:07:07.771Z,16.36
2023-03-19T20:10:10.109Z,16.31
2023-03-19T20:13:22.716Z,16.19
2023-03-19T20:16:26.023Z,16.16
2023-03-19T20:19:27.531Z,15.98
2023-03-19T20:22:29.610Z,15.76
2023-03-19T20:25:34.984Z,15.71
2023-03-19T20:28:36.676Z,15.73
2023-03-19T20:31:38.585Z,15.63
2023-03-19T20:34:40.131Z,15.52
2023-03-19T20:37:41.640Z,15.26
2023-03-19T20:40:52.112Z,15.15
2023-03-19T20:43:55.105Z,15.20
2023-03-19T20:46:56.617Z,15.01
2023-03-19T20:49:58.197Z,15.95
2023-03-19T20:53:03.570Z,15.89
2023-03-19T20:56:11.592Z,15.72
2023-03-19T20:59:13.038Z,15.80
2023-03-19T21:02:20.443Z,15.70
2023-03-19T21:05:23.600Z,15.68
2023-03-19T21:08:37.160Z,15.71
2023-03-19T21:11:41.921Z,15.65
2023-03-19T21:14:43.440Z,15.64
2023-03-19T21:17:44.974Z,15.56
2023-03-19T21:20:50.880Z,15.45
2023-03-19T21:24:01.068Z,15.47
2023-03-19T21:27:04.068Z,15.55
2023-03-19T21:30:06.518Z,15.63
2023-03-19T21:33:23.207Z,15.79
2023-03-19T21:36:24.768Z,15.90
2023-03-19T21:39:26.266Z,15.92
2023-03-19T21:42:30.349Z,15.94
2023-03-19T21:45:36.402Z,15.89
2023-03-19T21:48:39.910Z,15.87
2023-03-19T21:51:43.879Z,15.86
2023-03-19T21:54:45.918Z,15.78
2023-03-19T21:57:47.585Z,15.82
2023-03-19T22:00:49.588Z,15.86
2023-03-19T22:03:52.992Z,15.82
2023-03-19T22:06:54.535Z,15.78
2023-03-19T22:09:55.987Z,15.81
2023-03-19T22:12:57.584Z,15.92
2023-03-19T22:16:00.389Z,15.93
2023-03-19T22:19:02.256Z,15.92
2023-03-19T22:22:03.872Z,16.02
2023-03-19T22:25:05.729Z,16.08
2023-03-19T22:28:35.882Z,16.11
2023-03-19T22:31:37.489Z,16.15
2023-03-19T22:34:39.077Z,16.19
2023-03-19T22:37:40.746Z,16.22
2023-03-19T22:40:45.969Z,16.20
2023-03-19T22:43:47.890Z,16.26
2023-03-19T22:46:49.655Z,16.22
2023-03-19T22:49:51.991Z,16.20
2023-03-19T22:52:54.586Z,16.19
2023-03-19T22:55:57.019Z,16.16
2023-03-19T22:58:58.481Z,16.04
2023-03-19T23:02:00.304Z,15.80
2023-03-19T23:05:02.174Z,15.83
2023-03-19T23:08:06.183Z,15.89
2023-03-19T23:11:08.602Z,15.90
2023-03-19T23:14:26.139Z,15.93
2023-03-19T23:17:29.899Z,15.98
2023-03-19T23:20:35.027Z,16.02
2023-03-19T23:23:36.563Z,16.06
2023-03-19T23:26:40.496Z,16.00
2023-03-19T23:29:44.267Z,15.98
2023-03-19T23:32:45.747Z,16.05
2023-03-19T23:35:48.255Z,16.03
2023-03-19T23:38:49.755Z,16.06
2023-03-19T23:41:57.128Z,15.96
2023-03-19T23:45:01.939Z,15.97
2023-03-19T23:48:06.238Z,16.08
2023-03-19T23:51:10.947Z,16.21
2023-03-19T23:54:32.613Z,16.23
2023-03-19T23:57:37.108Z,16.21
